Time;durP1;ratioP1;P1;durP2;ratioP2;P2;SDS_P1;SDS_P2;PMS_P1;PMS_P2;Temp;Humidity;BMP_temperature;BMP_pressure;BME280_temperature;BME280_humidity;BME280_pressure;Samples;Min_cycle;Max_cycle;Signal;HPM_P1;HPM_P2
2022/10/29 00:01:48;;;;;;;17.97;5.70;;;15.50;99.90;;;;;;6190205;23;20206;-87
2022/10/29 00:04:13;;;;;;;18.13;6.40;;;15.50;99.90;;;;;;6189843;23;20668;-85
2022/10/29 00:06:39;;;;;;;14.47;5.13;;;15.50;99.90;;;;;;6191101;23;20210;-86
2022/10/29 00:09:05;;;;;;;18.57;5.47;;;15.40;99.90;;;;;;6189850;23;20161;-86
2022/10/29 00:11:30;;;;;;;12.50;5.27;;;15.40;99.90;;;;;;6189952;23;20175;-85
2022/10/29 00:13:59;;;;;;;13.63;5.40;;;15.30;99.90;;;;;;6189975;23;20180;-84
2022/10/29 00:16:27;;;;;;;11.30;5.10;;;15.40;99.90;;;;;;6189898;23;20255;-85
2022/10/29 00:18:54;;;;;;;13.17;5.30;;;15.30;99.90;;;;;;6190109;23;20203;-85
2022/10/29 00:21:23;;;;;;;10.07;5.33;;;15.60;99.90;;;;;;6189880;23;20180;-85
2022/10/29 00:23:49;;;;;;;12.97;5.00;;;15.30;99.90;;;;;;6216531;23;20184;-86
2022/10/29 00:26:17;;;;;;;15.73;6.10;;;15.30;99.90;;;;;;6190134;23;20567;-85
2022/10/29 00:28:42;;;;;;;13.63;5.30;;;15.20;99.90;;;;;;6190031;23;20167;-86
2022/10/29 00:31:17;;;;;;;11.57;5.53;;;15.30;99.90;;;;;;6191593;23;20155;-86
2022/10/29 00:33:43;;;;;;;9.67;4.93;;;15.20;99.90;;;;;;6216650;23;20175;-86
2022/10/29 00:36:14;;;;;;;10.07;5.03;;;15.20;99.90;;;;;;6189726;23;20591;-86
2022/10/29 00:38:40;;;;;;;12.70;4.63;;;15.40;99.90;;;;;;6189854;23;20235;-86
2022/10/29 00:41:07;;;;;;;11.50;5.07;;;15.10;99.90;;;;;;6189926;23;20168;-85
2022/10/29 00:43:35;;;;;;;13.47;5.20;;;15.00;99.90;;;;;;6189460;23;20191;-86
2022/10/29 00:46:07;;;;;;;11.33;5.13;;;15.00;99.90;;;;;;6190065;23;20243;-85
2022/10/29 00:48:37;;;;;;;13.17;5.17;;;15.00;99.90;;;;;;6189587;23;20503;-85
2022/10/29 00:51:06;;;;;;;12.63;5.20;;;15.90;99.90;;;;;;6189429;23;20156;-85
2022/10/29 00:53:35;;;;;;;16.00;5.77;;;15.00;99.90;;;;;;6189587;23;20179;-86
2022/10/29 00:56:01;;;;;;;14.00;5.67;;;14.90;99.90;;;;;;6216288;23;20671;-86
2022/10/29 00:58:27;;;;;;;14.83;5.63;;;15.90;99.90;;;;;;6190178;23;20168;-86
2022/10/29 01:00:53;;;;;;;15.50;5.73;;;14.90;99.90;;;;;;6189408;23;20160;-86
2022/10/29 01:03:18;;;;;;;17.30;5.93;;;15.20;99.90;;;;;;6189570;23;20196;-85
2022/10/29 01:05:45;;;;;;;12.07;5.10;;;15.60;99.90;;;;;;6189364;23;20572;-85
2022/10/29 01:08:12;;;;;;;13.67;5.67;;;15.00;99.90;;;;;;6189437;23;20494;-85
2022/10/29 01:10:46;;;;;;;13.10;5.43;;;14.90;99.90;;;;;;6189511;23;20215;-84
2022/10/29 01:13:29;;;;;;;13.23;5.13;;;14.80;99.90;;;;;;6189592;23;20218;-85
2022/10/29 01:16:20;;;;;;;9.03;4.97;;;14.80;99.90;;;;;;6189256;23;20203;-86
2022/10/29 01:19:11;;;;;;;10.00;4.87;;;14.80;99.90;;;;;;6172567;23;20602;-84
2022/10/29 01:21:47;;;;;;;10.50;4.93;;;14.80;99.90;;;;;;6189760;23;20187;-86
2022/10/29 01:24:31;;;;;;;9.73;5.03;;;14.70;99.90;;;;;;6189216;23;20199;-87
2022/10/29 01:27:18;;;;;;;9.23;5.13;;;14.70;99.90;;;;;;6215942;23;20136;-88
2022/10/29 01:30:21;;;;;;;10.93;4.83;;;14.70;99.90;;;;;;6189334;23;20227;-85
2022/10/29 01:33:13;;;;;;;12.17;5.87;;;14.70;99.90;;;;;;6189530;23;20237;-85
2022/10/29 01:35:47;;;;;;;12.20;5.60;;;14.70;99.90;;;;;;6189334;23;20156;-86
2022/10/29 01:38:39;;;;;;;17.57;5.77;;;14.70;99.90;;;;;;6189529;23;20158;-84
2022/10/29 01:41:26;;;;;;;13.90;5.40;;;14.70;99.90;;;;;;6189445;23;20161;-85
2022/10/29 01:44:04;;;;;;;17.00;6.20;;;14.60;99.90;;;;;;6189448;23;20188;-87
2022/10/29 01:46:39;;;;;;;15.23;5.07;;;14.60;99.90;;;;;;6189419;23;20148;-87
2022/10/29 01:49:11;;;;;;;13.67;6.43;;;14.60;99.90;;;;;;6189508;23;20158;-87
2022/10/29 01:51:38;;;;;;;16.40;6.47;;;14.60;99.90;;;;;;6189684;23;20156;-85
2022/10/29 01:54:10;;;;;;;12.87;5.47;;;14.60;99.90;;;;;;6189518;23;20558;-85
2022/10/29 01:56:35;;;;;;;17.53;6.00;;;14.60;99.90;;;;;;6190492;23;20163;-84
2022/10/29 01:59:05;;;;;;;16.50;5.67;;;14.60;99.90;;;;;;6191530;23;20555;-85
2022/10/29 02:01:44;;;;;;;20.60;5.93;;;14.60;99.90;;;;;;6191176;23;20164;-85
2022/10/29 02:04:29;;;;;;;13.43;5.50;;;14.50;99.90;;;;;;6190837;23;20509;-86
2022/10/29 02:07:06;;;;;;;16.50;5.73;;;14.50;99.90;;;;;;6191081;23;20148;-86
2022/10/29 02:09:47;;;;;;;13.00;6.30;;;14.50;99.90;;;;;;6217749;23;20148;-85
2022/10/29 02:12:29;;;;;;;17.47;6.07;;;14.50;99.90;;;;;;6191335;23;20144;-86
2022/10/29 02:15:03;;;;;;;14.00;5.70;;;14.50;99.90;;;;;;6191151;23;20183;-88
2022/10/29 02:17:31;;;;;;;14.80;5.80;;;14.70;99.90;;;;;;6191842;23;20147;-86
2022/10/29 02:19:56;;;;;;;18.03;6.07;;;14.40;99.90;;;;;;6190958;23;20157;-87
2022/10/29 02:22:22;;;;;;;16.53;5.97;;;14.40;99.90;;;;;;6190659;23;20207;-86
2022/10/29 02:24:47;;;;;;;15.03;5.47;;;14.30;99.90;;;;;;6217338;23;20205;-86
2022/10/29 02:27:13;;;;;;;13.00;5.37;;;14.60;99.90;;;;;;6191170;23;20164;-87
2022/10/29 02:29:39;;;;;;;15.93;5.70;;;14.40;99.90;;;;;;6190931;23;20239;-88
2022/10/29 02:32:04;;;;;;;12.77;5.23;;;14.20;99.90;;;;;;6190843;23;20156;-87
2022/10/29 02:34:30;;;;;;;13.53;5.90;;;14.20;99.90;;;;;;6190879;23;20203;-87
2022/10/29 02:36:55;;;;;;;13.90;5.30;;;14.20;99.90;;;;;;6191017;23;20156;-85
2022/10/29 02:39:21;;;;;;;15.87;6.00;;;14.20;99.90;;;;;;6194828;23;20220;-86
2022/10/29 02:41:46;;;;;;;19.63;6.67;;;14.20;99.90;;;;;;6197618;23;20157;-89
2022/10/29 02:44:12;;;;;;;13.97;5.93;;;14.20;99.90;;;;;;6195906;23;20250;-89
2022/10/29 02:46:39;;;;;;;12.87;6.03;;;14.20;99.90;;;;;;6196871;23;20614;-88
2022/10/29 02:49:05;;;;;;;20.90;6.33;;;14.70;99.90;;;;;;6194051;23;20160;-88
2022/10/29 02:51:31;;;;;;;14.43;6.53;;;14.30;99.90;;;;;;6191189;23;20160;-87
2022/10/29 02:53:56;;;;;;;18.23;6.90;;;14.30;99.90;;;;;;6191418;23;20260;-87
2022/10/29 02:56:22;;;;;;;16.20;6.47;;;14.40;99.90;;;;;;6191137;23;20156;-87
2022/10/29 02:58:47;;;;;;;16.00;7.07;;;14.40;99.90;;;;;;6191163;23;20191;-87
2022/10/29 03:01:13;;;;;;;13.37;6.97;;;14.40;99.90;;;;;;6190900;23;20192;-87
2022/10/29 03:03:39;;;;;;;16.43;6.20;;;14.50;99.90;;;;;;6217328;23;20195;-87
2022/10/29 03:06:11;;;;;;;21.57;5.67;;;14.50;99.90;;;;;;6191587;23;20153;-87
2022/10/29 03:08:37;;;;;;;12.97;6.20;;;14.70;99.90;;;;;;6219456;23;20187;-86
2022/10/29 03:11:02;;;;;;;16.37;6.23;;;14.50;99.90;;;;;;6191718;23;20161;-87
2022/10/29 03:13:28;;;;;;;14.80;7.57;;;14.50;99.90;;;;;;6217051;23;20248;-86
2022/10/29 03:15:53;;;;;;;13.93;6.33;;;14.50;99.90;;;;;;6190578;23;20215;-86
2022/10/29 03:18:19;;;;;;;17.60;6.90;;;15.90;99.90;;;;;;6190766;23;20168;-87
2022/10/29 03:20:46;;;;;;;26.27;6.83;;;14.50;99.90;;;;;;6190797;23;20313;-86
2022/10/29 03:23:12;;;;;;;15.27;5.90;;;14.50;99.90;;;;;;6190196;23;20188;-86
2022/10/29 03:25:37;;;;;;;21.93;7.10;;;14.90;99.90;;;;;;6217180;23;20206;-87
2022/10/29 03:28:03;;;;;;;17.80;6.83;;;14.50;99.90;;;;;;6190435;23;20159;-85
2022/10/29 03:30:28;;;;;;;18.90;6.17;;;14.50;99.90;;;;;;6191403;23;20184;-86
2022/10/29 03:32:54;;;;;;;11.17;5.57;;;14.50;99.90;;;;;;6190521;23;20165;-87
2022/10/29 03:35:20;;;;;;;14.23;6.17;;;14.60;99.90;;;;;;6190405;23;20164;-87
2022/10/29 03:37:49;;;;;;;21.93;6.97;;;14.60;99.90;;;;;;6191481;23;20166;-86
2022/10/29 03:40:15;;;;;;;15.60;6.50;;;14.40;99.90;;;;;;6190589;23;20170;-86
2022/10/29 03:42:40;;;;;;;13.07;5.67;;;14.40;99.90;;;;;;6190276;23;20204;-87
2022/10/29 03:45:07;;;;;;;15.53;5.90;;;14.40;99.90;;;;;;6216741;23;20609;-87
2022/10/29 03:47:33;;;;;;;17.23;6.13;;;14.30;99.90;;;;;;6190116;23;20188;-87
2022/10/29 03:49:58;;;;;;;12.60;6.43;;;14.30;99.90;;;;;;6190325;23;20155;-85
2022/10/29 03:52:24;;;;;;;13.93;6.77;;;15.10;99.90;;;;;;6216790;23;20148;-86
2022/10/29 03:54:50;;;;;;;15.90;5.90;;;14.20;99.90;;;;;;6190200;23;20176;-87
2022/10/29 03:57:15;;;;;;;18.03;6.73;;;14.40;99.90;;;;;;6190345;23;20191;-86
2022/10/29 03:59:40;;;;;;;16.17;5.63;;;14.40;99.90;;;;;;6190131;23;20161;-85
2022/10/29 04:02:06;;;;;;;13.43;5.83;;;14.50;99.90;;;;;;6190354;23;20267;-87
2022/10/29 04:04:32;;;;;;;11.30;5.73;;;14.80;99.90;;;;;;6216675;23;20302;-87
2022/10/29 04:06:58;;;;;;;13.93;5.97;;;14.70;99.90;;;;;;6190162;23;20157;-87
2022/10/29 04:09:23;;;;;;;14.07;6.00;;;14.70;99.90;;;;;;6190168;23;20215;-87
2022/10/29 04:11:49;;;;;;;20.27;6.83;;;14.90;99.90;;;;;;6190113;23;20156;-84
2022/10/29 04:14:14;;;;;;;15.23;5.73;;;14.80;99.90;;;;;;6189990;23;20696;-86
2022/10/29 04:16:40;;;;;;;13.80;6.13;;;14.80;99.90;;;;;;6190010;23;20246;-88
2022/10/29 04:19:05;;;;;;;17.80;6.17;;;14.90;99.90;;;;;;6189676;23;20200;-86
2022/10/29 04:21:31;;;;;;;10.60;5.60;;;14.80;99.90;;;;;;6189932;23;20160;-86
2022/10/29 04:23:56;;;;;;;22.17;6.17;;;14.80;99.90;;;;;;6189752;23;20581;-86
2022/10/29 04:26:22;;;;;;;15.13;6.57;;;14.70;99.90;;;;;;6189910;23;20663;-86
2022/10/29 04:28:49;;;;;;;15.03;6.03;;;14.60;99.90;;;;;;6190124;23;20152;-87
2022/10/29 04:31:15;;;;;;;17.03;6.27;;;14.70;99.90;;;;;;6189937;23;20181;-86
2022/10/29 04:33:40;;;;;;;20.47;7.10;;;14.70;99.90;;;;;;6189917;23;20180;-87
2022/10/29 04:36:06;;;;;;;15.30;6.30;;;14.60;99.90;;;;;;6216607;23;20650;-87
2022/10/29 04:38:32;;;;;;;13.30;5.90;;;14.60;99.90;;;;;;6189858;23;20246;-87
2022/10/29 04:40:58;;;;;;;24.23;5.97;;;14.60;99.90;;;;;;6190075;23;20194;-86
2022/10/29 04:43:24;;;;;;;16.43;6.00;;;14.60;99.90;;;;;;6189688;23;20729;-87
2022/10/29 04:45:52;;;;;;;12.23;6.17;;;14.60;99.90;;;;;;6189908;23;20173;-85
2022/10/29 04:48:18;;;;;;;13.33;5.67;;;14.50;99.90;;;;;;6189925;23;20211;-86
2022/10/29 04:50:43;;;;;;;17.13;5.70;;;14.60;99.90;;;;;;6189886;23;20158;-86
2022/10/29 04:53:09;;;;;;;12.07;5.17;;;14.60;99.90;;;;;;6190751;23;20162;-87
2022/10/29 04:55:37;;;;;;;18.73;5.97;;;14.70;99.90;;;;;;6190315;23;20641;-87
2022/10/29 04:58:03;;;;;;;16.10;6.00;;;14.70;99.90;;;;;;6189759;23;20188;-88
2022/10/29 05:00:29;;;;;;;15.43;5.73;;;14.70;99.90;;;;;;6189783;23;20167;-87
2022/10/29 05:02:54;;;;;;;14.93;5.83;;;14.70;99.90;;;;;;6189731;23;20182;-88
2022/10/29 05:05:20;;;;;;;22.30;5.97;;;14.70;99.90;;;;;;6189949;23;20160;-86
2022/10/29 05:07:46;;;;;;;23.67;5.87;;;14.70;99.90;;;;;;6189512;23;20160;-87
2022/10/29 05:10:13;;;;;;;17.83;5.57;;;14.60;99.90;;;;;;6189643;23;20156;-87
2022/10/29 05:12:39;;;;;;;16.03;5.47;;;14.60;99.90;;;;;;6189689;23;20500;-86
2022/10/29 05:15:05;;;;;;;16.03;5.77;;;14.70;99.90;;;;;;6189600;23;20207;-85
2022/10/29 05:17:35;;;;;;;12.33;6.03;;;14.60;99.90;;;;;;6189713;23;20199;-87
2022/10/29 05:20:00;;;;;;;12.00;5.23;;;14.70;99.90;;;;;;6189800;23;20193;-84
2022/10/29 05:22:26;;;;;;;13.83;5.40;;;14.50;99.90;;;;;;6216267;23;20160;-87
2022/10/29 05:24:51;;;;;;;13.43;6.20;;;14.50;99.90;;;;;;6189387;23;20199;-85
2022/10/29 05:27:17;;;;;;;13.47;5.57;;;14.50;99.90;;;;;;6189773;23;20160;-83
2022/10/29 05:29:42;;;;;;;10.50;5.07;;;14.50;99.90;;;;;;6189688;23;20152;-86
2022/10/29 05:32:08;;;;;;;15.63;5.43;;;14.40;99.90;;;;;;6191336;23;20583;-84
2022/10/29 05:34:33;;;;;;;17.03;5.53;;;14.40;99.90;;;;;;6191815;23;20626;-88
2022/10/29 05:36:59;;;;;;;12.57;4.97;;;14.20;99.90;;;;;;6191884;23;20546;-85
2022/10/29 05:39:24;;;;;;;17.03;6.37;;;14.30;99.90;;;;;;6192062;23;20189;-87
2022/10/29 05:41:50;;;;;;;13.00;5.43;;;14.20;99.90;;;;;;6194083;23;20496;-87
2022/10/29 05:44:16;;;;;;;18.83;5.70;;;14.30;99.90;;;;;;6192119;23;20531;-87
2022/10/29 05:46:41;;;;;;;18.00;6.47;;;14.10;99.90;;;;;;6191651;23;20586;-85
2022/10/29 05:49:07;;;;;;;15.70;5.80;;;14.20;99.90;;;;;;6191353;23;20621;-85
2022/10/29 05:51:32;;;;;;;13.70;5.63;;;14.30;99.90;;;;;;6191725;23;20238;-86
2022/10/29 05:53:58;;;;;;;15.47;6.10;;;14.20;99.90;;;;;;6191704;23;20634;-86
2022/10/29 05:56:23;;;;;;;19.57;6.17;;;14.20;99.90;;;;;;6192586;23;20213;-86
2022/10/29 05:58:49;;;;;;;15.77;6.07;;;14.20;99.90;;;;;;6191629;23;20167;-86
2022/10/29 06:01:18;;;;;;;18.53;6.27;;;14.20;99.90;;;;;;6191784;23;20160;-88
2022/10/29 06:03:44;;;;;;;15.60;5.63;;;14.20;99.90;;;;;;6191433;23;20729;-86
2022/10/29 06:06:10;;;;;;;12.90;6.10;;;14.20;99.90;;;;;;6191342;23;20167;-86
2022/10/29 06:08:36;;;;;;;13.40;5.60;;;14.20;99.90;;;;;;6191195;23;20156;-86
2022/10/29 06:11:02;;;;;;;17.63;5.73;;;14.10;99.90;;;;;;6191208;23;20294;-87
2022/10/29 06:13:28;;;;;;;14.43;5.53;;;14.20;99.90;;;;;;6191178;23;20180;-87
2022/10/29 06:15:57;;;;;;;12.93;5.57;;;14.20;99.90;;;;;;6191757;23;20172;-86
2022/10/29 06:18:23;;;;;;;17.77;5.63;;;14.10;99.90;;;;;;6191216;23;20167;-87
2022/10/29 06:20:49;;;;;;;17.63;5.90;;;14.30;99.90;;;;;;6191242;23;20635;-88
2022/10/29 06:23:14;;;;;;;15.87;6.23;;;14.30;99.90;;;;;;6190894;23;20960;-87
2022/10/29 06:25:40;;;;;;;11.20;5.57;;;14.30;99.90;;;;;;6191155;23;20156;-88
2022/10/29 06:28:13;;;;;;;17.27;5.20;;;14.30;99.90;;;;;;6191201;23;20157;-87
2022/10/29 06:30:40;;;;;;;15.43;5.07;;;14.30;99.90;;;;;;6190925;23;20153;-87
2022/10/29 06:33:06;;;;;;;13.30;4.97;;;14.40;99.90;;;;;;6190925;23;20156;-87
2022/10/29 06:35:32;;;;;;;11.07;5.13;;;14.40;99.90;;;;;;6190900;23;20255;-87
2022/10/29 06:37:58;;;;;;;10.00;4.70;;;14.30;99.90;;;;;;6191160;23;20220;-88
2022/10/29 06:40:23;;;;;;;16.80;4.77;;;14.30;99.90;;;;;;6190794;23;20195;-86
2022/10/29 06:42:56;;;;;;;21.40;5.10;;;14.30;99.90;;;;;;6190578;23;20277;-86
2022/10/29 06:45:23;;;;;;;11.30;5.00;;;14.30;99.90;;;;;;6190848;23;20575;-88
2022/10/29 06:47:49;;;;;;;16.53;5.17;;;14.40;99.90;;;;;;6190717;23;20152;-88
2022/10/29 06:50:14;;;;;;;13.70;5.20;;;14.30;99.90;;;;;;6191285;23;20200;-86
2022/10/29 06:52:40;;;;;;;15.00;5.00;;;14.40;99.90;;;;;;6217388;23;20171;-85
2022/10/29 06:55:06;;;;;;;14.03;5.50;;;14.30;99.90;;;;;;6190799;23;20188;-85
2022/10/29 06:57:32;;;;;;;19.27;5.50;;;14.30;99.90;;;;;;6190806;23;20163;-87
2022/10/29 06:59:57;;;;;;;14.83;4.97;;;14.30;99.90;;;;;;6190641;23;20171;-87
2022/10/29 07:02:23;;;;;;;11.17;4.70;;;14.20;99.90;;;;;;6190918;23;20210;-85
2022/10/29 07:04:49;;;;;;;16.87;5.57;;;14.30;99.90;;;;;;6190610;23;20257;-87
2022/10/29 07:07:15;;;;;;;17.20;5.33;;;14.30;99.90;;;;;;6217268;23;20583;-85
2022/10/29 07:09:44;;;;;;;13.43;5.00;;;14.20;99.90;;;;;;6190858;23;20215;-86
2022/10/29 07:12:10;;;;;;;15.87;5.13;;;14.30;99.90;;;;;;6190746;23;20323;-84
2022/10/29 07:14:36;;;;;;;12.20;4.60;;;14.30;99.90;;;;;;6190859;23;20255;-88
2022/10/29 07:17:02;;;;;;;13.83;4.87;;;14.20;99.90;;;;;;6190780;23;20161;-85
2022/10/29 07:19:27;;;;;;;16.63;5.70;;;14.30;99.90;;;;;;6191146;23;20168;-85
2022/10/29 07:21:53;;;;;;;12.83;5.77;;;14.30;99.90;;;;;;6191005;23;20242;-87
2022/10/29 07:24:18;;;;;;;23.20;4.93;;;14.60;99.90;;;;;;6216968;23;20274;-86
2022/10/29 07:26:44;;;;;;;15.10;5.13;;;14.30;99.90;;;;;;6190761;23;20195;-86
2022/10/29 07:29:09;;;;;;;12.13;4.93;;;14.30;99.90;;;;;;6190359;23;20187;-86
2022/10/29 07:31:35;;;;;;;18.93;5.37;;;14.40;99.90;;;;;;6191969;23;20244;-87
2022/10/29 07:34:01;;;;;;;16.87;5.30;;;14.50;99.90;;;;;;6190766;23;20180;-88
2022/10/29 07:36:29;;;;;;;11.93;5.17;;;14.50;99.90;;;;;;6190397;23;20237;-86
2022/10/29 07:38:54;;;;;;;14.97;5.63;;;14.50;99.90;;;;;;6190574;23;20171;-86
2022/10/29 07:41:20;;;;;;;12.33;5.33;;;14.60;99.90;;;;;;6190607;23;20169;-87
2022/10/29 07:43:45;;;;;;;13.77;5.20;;;14.70;99.90;;;;;;6190358;23;20626;-87
2022/10/29 07:46:11;;;;;;;14.10;5.67;;;14.70;99.90;;;;;;6193338;23;20578;-87
2022/10/29 07:48:37;;;;;;;14.37;4.87;;;14.70;99.90;;;;;;6190382;23;20586;-87
2022/10/29 07:51:03;;;;;;;15.20;5.93;;;14.70;99.90;;;;;;6190142;23;20162;-85
2022/10/29 07:53:31;;;;;;;20.40;6.07;;;14.90;99.90;;;;;;6216347;23;20172;-84
2022/10/29 07:55:58;;;;;;;20.13;5.83;;;15.00;99.90;;;;;;6190241;23;20171;-85
2022/10/29 07:58:24;;;;;;;14.20;5.40;;;15.00;99.90;;;;;;6190381;23;20214;-85
2022/10/29 08:00:51;;;;;;;12.63;5.67;;;15.10;99.90;;;;;;6190266;23;20171;-86
2022/10/29 08:03:16;;;;;;;11.90;5.37;;;15.30;99.90;;;;;;6190187;23;20278;-85
2022/10/29 08:05:42;;;;;;;12.40;5.63;;;15.20;99.90;;;;;;6190142;23;20216;-86
2022/10/29 08:08:08;;;;;;;17.07;6.50;;;15.30;99.90;;;;;;6190203;23;20243;-85
2022/10/29 08:10:35;;;;;;;11.17;5.40;;;15.40;99.90;;;;;;6190179;23;20203;-88
2022/10/29 08:13:03;;;;;;;12.23;6.20;;;15.40;99.90;;;;;;6216999;23;20154;-87
2022/10/29 08:15:30;;;;;;;11.30;5.70;;;15.50;99.90;;;;;;6192836;23;20162;-85
2022/10/29 08:17:56;;;;;;;11.63;5.47;;;16.60;99.90;;;;;;6190444;23;20184;-86
2022/10/29 08:20:23;;;;;;;19.57;6.33;;;15.60;99.90;;;;;;6190351;23;20164;-85
2022/10/29 08:22:49;;;;;;;16.40;5.70;;;15.60;99.90;;;;;;6190063;23;20588;-86
2022/10/29 08:25:15;;;;;;;13.43;5.80;;;15.70;99.90;;;;;;6189862;23;20220;-86
2022/10/29 08:27:41;;;;;;;13.23;5.67;;;15.80;99.90;;;;;;6190158;23;20158;-86
2022/10/29 08:30:09;;;;;;;17.43;5.80;;;15.90;99.90;;;;;;6216481;23;20147;-87
2022/10/29 08:32:35;;;;;;;19.90;5.77;;;16.00;99.90;;;;;;6190799;23;20163;-86
2022/10/29 08:35:01;;;;;;;16.53;5.73;;;16.20;99.90;;;;;;6189730;23;20180;-88
2022/10/29 08:37:26;;;;;;;13.30;5.30;;;16.30;99.90;;;;;;6189918;23;20183;-88
2022/10/29 08:39:52;;;;;;;15.97;5.40;;;16.50;99.90;;;;;;6189695;23;20626;-87
2022/10/29 08:42:52;;;;;;;13.90;6.17;;;16.60;99.90;;;;;;6189643;23;20160;-86
2022/10/29 08:45:59;;;;;;;14.97;5.10;;;16.80;99.90;;;;;;6143191;23;20179;-86
2022/10/29 08:48:40;;;;;;;14.53;5.13;;;16.90;99.90;;;;;;6066251;23;20156;-86
2022/10/29 08:51:22;;;;;;;12.77;5.40;;;17.00;99.90;;;;;;6175154;23;20160;-85
2022/10/29 08:53:54;;;;;;;15.97;6.13;;;17.10;99.90;;;;;;6189835;23;20184;-85
2022/10/29 08:56:32;;;;;;;10.73;5.13;;;17.20;99.90;;;;;;6189746;23;20168;-85
2022/10/29 08:59:26;;;;;;;18.07;5.70;;;17.30;99.90;;;;;;6189677;23;20152;-86
2022/10/29 09:01:52;;;;;;;17.30;5.67;;;17.30;99.90;;;;;;6189639;23;20156;-85
2022/10/29 09:04:23;;;;;;;14.17;5.97;;;17.40;99.90;;;;;;6189386;23;20192;-86
2022/10/29 09:07:13;;;;;;;11.47;5.37;;;17.60;99.90;;;;;;6189685;23;20156;-84
2022/10/29 09:09:48;;;;;;;13.93;5.80;;;17.70;99.90;;;;;;6216307;23;20590;-85
2022/10/29 09:12:24;;;;;;;17.80;5.70;;;17.80;99.90;;;;;;6216125;23;20163;-86
2022/10/29 09:14:53;;;;;;;14.77;4.80;;;18.00;99.90;;;;;;6189512;23;20190;-87
2022/10/29 09:18:00;;;;;;;17.00;4.87;;;18.10;99.90;;;;;;6189683;23;20211;-86
2022/10/29 09:20:50;;;;;;;14.60;5.47;;;18.20;99.90;;;;;;6190291;23;20155;-85
2022/10/29 09:23:53;;;;;;;15.63;5.03;;;18.30;99.90;;;;;;6189452;23;20196;-86
2022/10/29 09:26:35;;;;;;;14.37;5.30;;;18.40;99.90;;;;;;6189636;23;20159;-87
2022/10/29 09:29:23;;;;;;;12.53;5.17;;;18.50;99.90;;;;;;6189563;23;20175;-86
2022/10/29 09:31:54;;;;;;;9.57;4.37;;;18.60;99.90;;;;;;6189627;23;20164;-84
2022/10/29 09:34:48;;;;;;;25.57;5.47;;;18.60;99.90;;;;;;6189707;23;20184;-86
2022/10/29 09:37:32;;;;;;;14.30;4.90;;;18.80;99.90;;;;;;6151416;23;20504;-88
2022/10/29 09:40:03;;;;;;;12.43;3.93;;;18.80;99.90;;;;;;6216799;23;20633;-86
2022/10/29 09:42:37;;;;;;;12.90;4.13;;;18.90;99.90;;;;;;6189997;23;20528;-85
2022/10/29 09:45:10;;;;;;;15.00;5.10;;;19.00;99.90;;;;;;6216110;23;20171;-86
2022/10/29 09:48:19;;;;;;;13.87;4.30;;;19.00;99.90;;;;;;6189302;23;20165;-86
2022/10/29 09:51:32;;;;;;;17.83;5.37;;;19.00;99.90;;;;;;6066490;23;20170;-84
2022/10/29 09:53:57;;;;;;;21.30;4.70;;;19.00;99.90;;;;;;6177163;23;20183;-87
2022/10/29 09:56:24;;;;;;;13.50;4.43;;;19.00;99.90;;;;;;6188529;23;20214;-85
2022/10/29 09:58:58;;;;;;;12.37;4.13;;;18.90;99.90;;;;;;6190152;23;20549;-85
2022/10/29 10:01:23;;;;;;;13.20;4.47;;;18.90;99.90;;;;;;6196728;23;20187;-88
2022/10/29 10:03:54;;;;;;;16.00;4.70;;;19.20;99.90;;;;;;6196294;23;20650;-88
2022/10/29 10:06:20;;;;;;;12.57;4.50;;;19.00;99.90;;;;;;6198795;23;20171;-90
2022/10/29 10:09:04;;;;;;;18.47;4.20;;;18.80;99.90;;;;;;6199473;23;20157;-88
2022/10/29 10:11:37;;;;;;;11.17;4.00;;;19.10;99.90;;;;;;6224082;23;20211;-86
2022/10/29 10:14:13;;;;;;;13.17;5.07;;;19.20;99.90;;;;;;6193374;23;20286;-87
2022/10/29 10:16:42;;;;;;;15.83;4.43;;;19.20;99.90;;;;;;6193540;23;20166;-88
2022/10/29 10:19:23;;;;;;;13.80;4.27;;;19.30;99.90;;;;;;6219244;23;20233;-87
2022/10/29 10:22:02;;;;;;;12.23;4.40;;;19.30;99.90;;;;;;6191410;23;20533;-85
2022/10/29 10:24:33;;;;;;;13.97;4.87;;;19.30;99.90;;;;;;6191084;23;20697;-88
2022/10/29 10:27:00;;;;;;;15.43;5.00;;;19.10;99.90;;;;;;6217649;23;20152;-87
2022/10/29 10:29:27;;;;;;;13.57;4.33;;;19.40;99.90;;;;;;6191406;23;20263;-86
2022/10/29 10:31:55;;;;;;;12.63;4.33;;;19.20;99.90;;;;;;6191219;23;20222;-86
2022/10/29 10:34:34;;;;;;;18.10;4.30;;;19.30;99.90;;;;;;6191221;23;20188;-86
2022/10/29 10:37:20;;;;;;;14.40;4.80;;;19.30;99.90;;;;;;6192147;23;20160;-86
2022/10/29 10:39:57;;;;;;;15.30;4.93;;;19.30;99.90;;;;;;6190829;23;20164;-87
2022/10/29 10:42:31;;;;;;;15.47;4.43;;;19.30;99.90;;;;;;6218018;23;20191;-85
2022/10/29 10:45:14;;;;;;;16.33;5.00;;;19.30;99.90;;;;;;6191487;23;20259;-89
2022/10/29 10:47:49;;;;;;;13.63;4.40;;;19.40;99.90;;;;;;6191469;23;20155;-87
2022/10/29 10:50:39;;;;;;;15.97;4.43;;;19.40;99.90;;;;;;6218162;23;20137;-87
2022/10/29 10:53:22;;;;;;;10.93;4.03;;;19.50;99.90;;;;;;6190343;23;20164;-86
2022/10/29 10:55:52;;;;;;;17.30;5.27;;;19.40;99.90;;;;;;6191118;23;20544;-86
2022/10/29 10:58:43;;;;;;;12.67;4.10;;;19.70;99.90;;;;;;6191001;23;20167;-85
2022/10/29 11:01:30;;;;;;;12.60;4.53;;;19.80;99.90;;;;;;6190944;23;20223;-86
2022/10/29 11:04:05;;;;;;;13.20;4.60;;;19.90;99.90;;;;;;6190820;23;20221;-87
2022/10/29 11:06:34;;;;;;;10.30;3.90;;;20.10;99.90;;;;;;6191053;23;20152;-86
2022/10/29 11:09:12;;;;;;;16.23;4.07;;;20.20;99.90;;;;;;6191139;23;20238;-86
2022/10/29 11:12:01;;;;;;;21.00;4.53;;;20.30;99.90;;;;;;6191024;23;20153;-86
2022/10/29 11:14:53;;;;;;;14.63;4.07;;;20.30;99.90;;;;;;6190778;23;20185;-87
2022/10/29 11:17:25;;;;;;;16.30;4.13;;;20.40;99.90;;;;;;6175387;23;20165;-88
2022/10/29 11:19:53;;;;;;;17.60;5.20;;;20.40;99.90;;;;;;6191281;23;20490;-85
2022/10/29 11:22:37;;;;;;;12.97;4.47;;;20.60;99.90;;;;;;6190878;23;20607;-87
2022/10/29 11:25:30;;;;;;;16.63;5.13;;;20.70;99.90;;;;;;6190348;23;20246;-86
2022/10/29 11:27:58;;;;;;;9.43;3.93;;;20.80;99.90;;;;;;6190532;23;20148;-87
2022/10/29 11:30:26;;;;;;;12.60;4.00;;;20.90;99.90;;;;;;6190830;23;20212;-88
2022/10/29 11:33:16;;;;;;;18.90;4.67;;;21.00;99.90;;;;;;6190669;23;20472;-87
2022/10/29 11:35:52;;;;;;;11.43;4.20;;;21.20;99.90;;;;;;6190305;23;20247;-89
2022/10/29 11:38:25;;;;;;;19.87;4.50;;;21.30;99.90;;;;;;6192418;23;20156;-87
2022/10/29 11:40:58;;;;;;;9.50;3.90;;;21.40;99.90;;;;;;6191729;23;20497;-90
2022/10/29 11:43:24;;;;;;;19.83;4.47;;;21.50;99.90;;;;;;6190715;23;20662;-85
2022/10/29 11:46:04;;;;;;;16.10;5.00;;;21.60;99.90;;;;;;6190451;23;20160;-87
2022/10/29 11:48:54;;;;;;;13.07;4.87;;;21.70;99.90;;;;;;6190391;23;20239;-88
2022/10/29 11:51:28;;;;;;;15.13;4.43;;;21.70;99.90;;;;;;6190161;23;20231;-87
2022/10/29 11:54:11;;;;;;;11.03;3.97;;;21.70;99.90;;;;;;6216804;23;20195;-86
2022/10/29 11:57:02;;;;;;;8.03;3.70;;;21.80;99.90;;;;;;6190203;23;20579;-86
2022/10/29 11:59:42;;;;;;;16.57;4.17;;;22.00;99.90;;;;;;6190102;23;20579;-88
2022/10/29 12:02:39;;;;;;;11.87;4.07;;;22.10;99.90;;;;;;6190154;23;20244;-87
2022/10/29 12:05:28;;;;;;;13.50;3.93;;;22.20;99.90;;;;;;6190698;23;20190;-86
2022/10/29 12:08:03;;;;;;;15.53;4.63;;;22.40;99.90;;;;;;6190051;23;20160;-85
2022/10/29 12:10:43;;;;;;;19.37;4.03;;;22.50;99.90;;;;;;6190045;23;20155;-87
2022/10/29 12:13:28;;;;;;;12.83;3.83;;;22.50;99.90;;;;;;6189936;23;20167;-87
2022/10/29 12:16:06;;;;;;;18.20;4.57;;;22.60;99.90;;;;;;6190069;23;20491;-86
2022/10/29 12:18:58;;;;;;;9.63;3.73;;;22.60;99.90;;;;;;6190133;23;20230;-88
2022/10/29 12:21:32;;;;;;;12.57;4.00;;;22.70;99.90;;;;;;6189903;23;20198;-86
2022/10/29 12:24:19;;;;;;;15.60;4.23;;;22.80;99.90;;;;;;6189675;23;20740;-87
2022/10/29 12:27:00;;;;;;;10.77;4.50;;;22.90;99.90;;;;;;6190101;23;20159;-86
2022/10/29 12:29:46;;;;;;;12.27;4.03;;;23.00;99.90;;;;;;6190099;23;20183;-88
2022/10/29 12:32:31;;;;;;;15.40;4.07;;;23.10;99.90;;;;;;6216725;23;20211;-89
2022/10/29 12:35:15;;;;;;;7.90;3.67;;;23.10;99.90;;;;;;6190332;23;20184;-87
2022/10/29 12:37:47;;;;;;;14.20;4.37;;;23.00;99.90;;;;;;6190441;23;20160;-87
2022/10/29 12:40:23;;;;;;;18.63;3.80;;;23.00;99.90;;;;;;6190575;23;20149;-88
2022/10/29 12:42:49;;;;;;;13.60;3.90;;;22.90;99.90;;;;;;6190185;23;20172;-88
2022/10/29 12:46:02;;;;;;;12.30;4.43;;;22.90;99.90;;;;;;6190556;23;20184;-87
2022/10/29 12:48:40;;;;;;;9.03;3.50;;;22.90;99.90;;;;;;6190798;23;20251;-89
2022/10/29 12:51:28;;;;;;;14.33;3.93;;;23.00;99.90;;;;;;6190545;23;20152;-85
2022/10/29 12:53:59;;;;;;;17.30;5.10;;;23.00;99.90;;;;;;6189833;23;20203;-86
2022/10/29 12:56:26;;;;;;;18.50;4.13;;;23.10;99.90;;;;;;6190026;23;20148;-87
2022/10/29 12:58:58;;;;;;;13.03;4.13;;;23.10;99.90;;;;;;6189723;23;20156;-84
2022/10/29 13:01:27;;;;;;;16.60;4.30;;;23.20;99.90;;;;;;6189805;23;20144;-87